Terminal Aerodrome Forecast
Issued by NWS Sioux Falls, SD

Home | Current Version | Previous Version | Graphics & Text | Print | Product List | Glossary Off
Versions: 1 2 3 4 5 6 7 8 9 10 11 12 13 14

000
FTUS43 KFSD 211720
TAFFSD
TAF
KFSD 211720Z 2118/2218 30015G23KT P6SM SKC
     FM220000 32008KT P6SM SCT060
     FM220400 VRB02KT P6SM SCT060
     FM221600 14006KT P6SM SCT060=

USA.gov is the U.S. government's official web portal to all federal, state and local government web resources and services.